Time;durP1;ratioP1;P1;durP2;ratioP2;P2;SDS_P1;SDS_P2;PMS_P1;PMS_P2;Temp;Humidity;BMP_temperature;BMP_pressure;BME280_temperature;BME280_humidity;BME280_pressure;Samples;Min_cycle;Max_cycle;Signal;HPM_P1;HPM_P2
2022/06/03 00:00:24;;;;;;;6.53;4.15;;;11.40;99.90;;;;;;4907896;29;20127;-76
2022/06/03 00:03:23;;;;;;;5.15;4.20;;;11.40;99.90;;;;;;4906135;29;20048;-76
2022/06/03 00:05:55;;;;;;;5.03;3.50;;;11.30;99.90;;;;;;4901747;29;20052;-75
2022/06/03 00:08:23;;;;;;;6.85;4.60;;;11.30;99.90;;;;;;4909556;29;20157;-76
2022/06/03 00:11:27;;;;;;;6.10;4.07;;;11.30;99.90;;;;;;4902684;29;20049;-75
2022/06/03 00:14:30;;;;;;;5.80;4.00;;;11.30;99.90;;;;;;4919761;29;20059;-76
2022/06/03 00:17:01;;;;;;;5.82;4.43;;;11.20;99.90;;;;;;4902920;29;20498;-76
2022/06/03 00:19:48;;;;;;;6.22;4.28;;;11.20;99.90;;;;;;4904000;29;20135;-75
2022/06/03 00:22:31;;;;;;;4.78;3.53;;;11.20;99.90;;;;;;4908922;29;20071;-76
2022/06/03 00:25:02;;;;;;;6.00;4.93;;;11.20;99.90;;;;;;4919942;29;20061;-76
2022/06/03 00:27:51;;;;;;;5.13;3.60;;;11.20;99.90;;;;;;4909506;29;20048;-76
2022/06/03 00:30:26;;;;;;;5.22;4.10;;;11.20;99.90;;;;;;4915046;29;20107;-76
2022/06/03 00:33:03;;;;;;;5.93;4.07;;;11.10;99.90;;;;;;4903814;29;20048;-76
2022/06/03 00:35:52;;;;;;;5.90;4.18;;;11.10;99.90;;;;;;4903255;29;20499;-76
2022/06/03 00:38:45;;;;;;;5.93;4.50;;;11.00;99.90;;;;;;4919541;29;20044;-76
2022/06/03 00:41:35;;;;;;;5.57;3.90;;;10.60;99.90;;;;;;4909264;29;20056;-76
2022/06/03 00:44:12;;;;;;;5.85;4.15;;;11.10;99.90;;;;;;4918797;29;20053;-74
2022/06/03 00:47:03;;;;;;;5.05;3.70;;;11.00;99.90;;;;;;4901059;29;20144;-76
2022/06/03 00:49:39;;;;;;;5.25;4.13;;;11.00;99.90;;;;;;4886338;29;20063;-76
2022/06/03 00:52:26;;;;;;;6.60;4.45;;;10.90;99.90;;;;;;4904099;29;20437;-76
2022/06/03 00:55:31;;;;;;;4.88;4.00;;;10.20;99.90;;;;;;4902700;29;20063;-76
2022/06/03 00:58:02;;;;;;;5.30;4.60;;;10.90;99.90;;;;;;4917983;29;20062;-76
2022/06/03 01:00:32;;;;;;;5.85;4.38;;;10.80;99.90;;;;;;4916244;29;20051;-76
2022/06/03 01:03:15;;;;;;;7.30;4.63;;;10.80;99.90;;;;;;4917547;29;20071;-74
2022/06/03 01:06:13;;;;;;;5.53;4.25;;;10.80;99.90;;;;;;4906687;29;20934;-76
2022/06/03 01:09:17;;;;;;;5.80;4.32;;;10.80;99.90;;;;;;4894376;29;20052;-77
2022/06/03 01:12:01;;;;;;;6.28;4.53;;;10.80;99.90;;;;;;4917579;29;20076;-76
2022/06/03 01:14:30;;;;;;;6.20;4.35;;;10.80;99.90;;;;;;4907548;29;20405;-76
2022/06/03 01:17:11;;;;;;;4.88;4.28;;;10.70;99.90;;;;;;4892170;29;20142;-76
2022/06/03 01:19:55;;;;;;;5.55;4.25;;;10.70;99.90;;;;;;4903791;29;20137;-79
2022/06/03 01:22:47;;;;;;;7.05;4.68;;;10.60;99.90;;;;;;4916983;29;20143;-76
2022/06/03 01:25:28;;;;;;;6.65;4.45;;;10.60;99.90;;;;;;4906042;29;20072;-76
2022/06/03 01:28:28;;;;;;;6.10;4.18;;;10.60;99.90;;;;;;4901458;29;20052;-77
2022/06/03 01:31:12;;;;;;;6.18;3.90;;;10.50;99.90;;;;;;4906505;29;20545;-76
2022/06/03 01:34:01;;;;;;;8.43;4.00;;;10.50;99.90;;;;;;4917260;29;20468;-77
2022/06/03 01:36:55;;;;;;;4.63;3.67;;;10.50;99.90;;;;;;4901703;29;20052;-76
2022/06/03 01:39:55;;;;;;;6.03;3.90;;;10.50;99.90;;;;;;4917822;29;20056;-76
2022/06/03 01:42:42;;;;;;;4.07;3.40;;;10.50;99.90;;;;;;4909732;29;20048;-76
2022/06/03 01:45:37;;;;;;;4.55;3.83;;;10.40;99.90;;;;;;4894880;29;20071;-75
2022/06/03 01:48:03;;;;;;;6.32;3.83;;;10.40;99.90;;;;;;4910274;29;20056;-78
2022/06/03 01:50:59;;;;;;;5.30;4.10;;;10.40;99.90;;;;;;4893487;29;20092;-77
2022/06/03 01:53:42;;;;;;;5.43;3.70;;;10.40;99.90;;;;;;4889810;29;20066;-77
2022/06/03 01:56:17;;;;;;;6.53;4.35;;;10.40;99.90;;;;;;4911097;29;20569;-76
2022/06/03 01:59:00;;;;;;;6.70;3.55;;;10.30;99.90;;;;;;4905402;29;20056;-77
2022/06/03 02:02:05;;;;;;;6.20;3.58;;;10.30;99.90;;;;;;4920065;29;20052;-76
2022/06/03 02:04:42;;;;;;;4.28;3.67;;;10.30;99.90;;;;;;4905188;29;20048;-76
2022/06/03 02:07:30;;;;;;;6.28;3.88;;;10.20;99.90;;;;;;4917940;29;20078;-76
2022/06/03 02:10:32;;;;;;;4.82;3.70;;;10.20;99.90;;;;;;4918678;29;20051;-75
2022/06/03 02:13:07;;;;;;;7.07;3.75;;;10.20;99.90;;;;;;4893342;29;20044;-76
2022/06/03 02:15:57;;;;;;;5.97;3.90;;;10.20;99.90;;;;;;4908714;29;20052;-77
2022/06/03 02:19:03;;;;;;;4.47;4.00;;;10.20;99.90;;;;;;4921187;29;20123;-76
2022/06/03 02:21:38;;;;;;;4.45;3.70;;;10.10;99.90;;;;;;4904248;29;20163;-76
2022/06/03 02:24:26;;;;;;;4.97;4.18;;;10.10;99.90;;;;;;4894137;29;20047;-77
2022/06/03 02:27:28;;;;;;;5.72;4.35;;;10.10;99.90;;;;;;4909529;29;20040;-77
2022/06/03 02:30:26;;;;;;;5.25;4.32;;;10.10;99.90;;;;;;4893843;29;20116;-77
2022/06/03 02:33:16;;;;;;;5.60;4.20;;;10.10;99.90;;;;;;4910257;29;20087;-75
2022/06/03 02:35:49;;;;;;;6.75;4.13;;;10.00;99.90;;;;;;4903734;29;20084;-77
2022/06/03 02:38:49;;;;;;;6.25;4.00;;;10.00;99.90;;;;;;4909673;29;21858;-75
2022/06/03 02:41:39;;;;;;;5.18;4.60;;;10.00;99.90;;;;;;4909725;29;20071;-75
2022/06/03 02:44:26;;;;;;;7.15;4.28;;;10.00;99.90;;;;;;4908350;29;20127;-76
2022/06/03 02:47:07;;;;;;;6.35;4.03;;;10.00;99.90;;;;;;4908387;29;20090;-76
2022/06/03 02:50:01;;;;;;;5.68;4.25;;;10.00;99.90;;;;;;4918753;29;20386;-76
2022/06/03 02:53:05;;;;;;;7.57;4.65;;;10.00;99.90;;;;;;4903885;29;20056;-76
2022/06/03 02:55:41;;;;;;;6.45;3.85;;;9.90;99.90;;;;;;4918033;29;20052;-76
2022/06/03 02:58:26;;;;;;;5.25;4.15;;;9.90;99.90;;;;;;4908736;29;20056;-77
2022/06/03 03:01:07;;;;;;;6.47;4.25;;;9.90;99.90;;;;;;4893677;29;20048;-76
2022/06/03 03:04:01;;;;;;;6.10;3.83;;;9.90;99.90;;;;;;4910037;29;20099;-76
2022/06/03 03:06:55;;;;;;;5.38;4.00;;;9.90;99.90;;;;;;4907960;29;20052;-76
2022/06/03 03:09:29;;;;;;;5.72;4.07;;;9.80;99.90;;;;;;4908798;29;20956;-76
2022/06/03 03:12:21;;;;;;;6.00;3.75;;;9.80;99.90;;;;;;4918523;29;20075;-76
2022/06/03 03:15:38;;;;;;;5.65;4.18;;;9.80;99.90;;;;;;4890987;29;20092;-76
2022/06/03 03:18:28;;;;;;;4.67;3.90;;;9.80;99.90;;;;;;4886765;29;20104;-76
2022/06/03 03:21:16;;;;;;;4.00;3.28;;;9.80;99.90;;;;;;4904466;29;20048;-76
2022/06/03 03:24:09;;;;;;;7.43;4.30;;;9.70;99.90;;;;;;4904065;29;20048;-76
2022/06/03 03:26:48;;;;;;;5.55;3.60;;;9.70;99.90;;;;;;4892589;29;20122;-76
2022/06/03 03:29:14;;;;;;;6.32;4.20;;;9.80;99.90;;;;;;4918717;29;20055;-76
2022/06/03 03:31:42;;;;;;;4.88;4.18;;;9.70;99.90;;;;;;4909110;29;20052;-76
2022/06/03 03:34:13;;;;;;;5.05;4.35;;;9.70;99.90;;;;;;4894248;29;20045;-75
2022/06/03 03:36:49;;;;;;;5.93;4.55;;;9.70;99.90;;;;;;4908314;29;20112;-75
2022/06/03 03:39:43;;;;;;;4.28;3.85;;;9.70;99.90;;;;;;4888438;29;20056;-75
2022/06/03 03:43:10;;;;;;;5.95;4.45;;;9.60;99.90;;;;;;4907805;29;20050;-74
2022/06/03 03:45:57;;;;;;;4.28;3.72;;;9.70;99.90;;;;;;4851098;29;20143;-75
2022/06/03 03:48:38;;;;;;;6.57;4.68;;;9.70;99.90;;;;;;4892860;29;20051;-75
2022/06/03 03:51:11;;;;;;;5.22;4.38;;;9.60;99.90;;;;;;4919793;29;20052;-75
2022/06/03 03:53:43;;;;;;;6.43;4.35;;;9.60;99.90;;;;;;4908448;29;20056;-76
2022/06/03 03:56:36;;;;;;;6.18;4.55;;;9.70;99.90;;;;;;4906814;29;20062;-76
2022/06/03 03:59:17;;;;;;;5.60;4.60;;;9.70;99.90;;;;;;4902884;29;20395;-76
2022/06/03 04:01:52;;;;;;;5.63;4.50;;;9.70;99.90;;;;;;4907671;29;20056;-76
2022/06/03 04:04:49;;;;;;;6.53;4.50;;;9.70;99.90;;;;;;4901732;29;20071;-75
2022/06/03 04:07:36;;;;;;;5.88;4.70;;;9.80;99.90;;;;;;4918493;29;20048;-75
2022/06/03 04:10:35;;;;;;;7.65;4.85;;;9.70;99.90;;;;;;4908272;29;20040;-76
2022/06/03 04:13:38;;;;;;;6.45;4.40;;;9.70;99.90;;;;;;4918045;29;20442;-76
2022/06/03 04:16:22;;;;;;;6.65;4.88;;;9.70;99.90;;;;;;4907854;29;20052;-76
2022/06/03 04:19:34;;;;;;;5.75;4.60;;;9.70;99.90;;;;;;4907372;29;20056;-77
2022/06/03 04:22:31;;;;;;;6.15;4.20;;;9.80;99.90;;;;;;4892336;29;20056;-77
2022/06/03 04:25:18;;;;;;;6.38;3.97;;;9.80;99.90;;;;;;4905893;29;20070;-76
2022/06/03 04:28:03;;;;;;;6.78;4.63;;;9.90;99.90;;;;;;4902523;29;20421;-76
2022/06/03 04:30:29;;;;;;;5.95;4.93;;;9.80;99.90;;;;;;4905110;29;20553;-76
2022/06/03 04:33:07;;;;;;;7.93;5.53;;;9.90;99.90;;;;;;4906554;29;20064;-76
2022/06/03 04:36:03;;;;;;;5.20;4.70;;;9.90;99.90;;;;;;4907581;29;20051;-77
2022/06/03 04:39:05;;;;;;;5.05;4.55;;;9.90;99.90;;;;;;4901514;29;20526;-76
2022/06/03 04:41:56;;;;;;;5.45;4.40;;;9.90;99.90;;;;;;4907321;29;20119;-75
2022/06/03 04:44:58;;;;;;;6.75;4.88;;;10.00;99.90;;;;;;4907619;29;20416;-76
2022/06/03 04:47:26;;;;;;;7.10;5.28;;;10.00;99.90;;;;;;4906699;29;20052;-76
2022/06/03 04:50:20;;;;;;;6.43;4.85;;;10.10;99.90;;;;;;4906747;29;20127;-77
2022/06/03 04:53:27;;;;;;;7.30;4.85;;;10.10;99.90;;;;;;4906306;29;20104;-75
2022/06/03 04:56:12;;;;;;;;;;;10.20;99.90;;;;;;4905650;29;20060;-78
2022/06/03 04:58:55;;;;;;;9.02;5.10;;;10.20;99.90;;;;;;4920042;29;19929;-76
2022/06/03 05:01:59;;;;;;;7.72;5.28;;;10.30;99.90;;;;;;4906894;29;20816;-76
2022/06/03 05:04:28;;;;;;;6.28;4.50;;;10.40;99.90;;;;;;4903797;29;20111;-76
2022/06/03 05:07:12;;;;;;;6.18;5.25;;;10.40;99.90;;;;;;4901918;29;20104;-77
2022/06/03 05:09:56;;;;;;;6.57;4.50;;;10.50;99.90;;;;;;4917580;29;20059;-75
2022/06/03 05:12:42;;;;;;;7.28;4.72;;;10.60;99.90;;;;;;4918095;29;20056;-75
2022/06/03 05:15:26;;;;;;;7.97;5.32;;;10.70;99.90;;;;;;4918853;29;20221;-78
2022/06/03 05:18:02;;;;;;;6.00;4.93;;;10.80;99.90;;;;;;4915925;29;20180;-75
2022/06/03 05:20:45;;;;;;;7.25;5.60;;;10.90;99.90;;;;;;4907107;29;20139;-76
2022/06/03 05:23:40;;;;;;;7.30;5.68;;;11.00;99.90;;;;;;4913013;29;20048;-75
2022/06/03 05:26:28;;;;;;;7.95;5.78;;;11.10;99.90;;;;;;4905878;29;20072;-76
2022/06/03 05:29:39;;;;;;;7.32;6.20;;;11.30;99.90;;;;;;4900200;29;20053;-77
2022/06/03 05:32:28;;;;;;;7.55;6.15;;;11.40;99.90;;;;;;4883048;29;20060;-76
2022/06/03 05:35:13;;;;;;;8.65;6.32;;;11.50;99.90;;;;;;4902875;29;20056;-76
2022/06/03 05:38:03;;;;;;;7.75;6.10;;;11.60;99.90;;;;;;4892126;29;20048;-75
2022/06/03 05:40:50;;;;;;;7.45;5.85;;;11.70;99.90;;;;;;4918574;29;20052;-75
2022/06/03 05:43:44;;;;;;;7.13;5.70;;;11.90;99.90;;;;;;4913315;29;20056;-76
2022/06/03 05:46:38;;;;;;;7.53;5.05;;;12.10;99.90;;;;;;4915230;29;20461;-74
2022/06/03 05:49:10;;;;;;;6.60;4.90;;;12.20;99.90;;;;;;4900763;29;20071;-75
2022/06/03 05:51:54;;;;;;;6.38;4.97;;;12.30;99.90;;;;;;4907242;29;20055;-75
2022/06/03 05:54:46;;;;;;;6.32;4.38;;;12.50;99.90;;;;;;4901053;29;20056;-75
2022/06/03 05:57:18;;;;;;;5.00;4.18;;;12.70;99.90;;;;;;4905606;29;20056;-75
2022/06/03 05:59:47;;;;;;;7.28;4.40;;;12.80;99.90;;;;;;4917841;29;20048;-75
2022/06/03 06:02:25;;;;;;;6.15;4.38;;;13.00;99.90;;;;;;4916887;29;20051;-75
2022/06/03 06:05:00;;;;;;;5.00;3.67;;;13.10;99.90;;;;;;4906809;29;20809;-76
2022/06/03 06:08:02;;;;;;;6.22;3.75;;;13.20;99.90;;;;;;4901355;29;20040;-75
2022/06/03 06:10:34;;;;;;;4.70;3.58;;;13.40;99.90;;;;;;4906149;29;20044;-76
2022/06/03 06:13:30;;;;;;;4.38;3.17;;;13.50;99.90;;;;;;4901485;29;20055;-76
2022/06/03 06:16:00;;;;;;;6.20;3.28;;;13.60;99.90;;;;;;4887999;29;20087;-76
2022/06/03 06:18:50;;;;;;;5.35;3.35;;;13.80;99.90;;;;;;4906749;29;20044;-74
2022/06/03 06:21:36;;;;;;;4.35;3.10;;;14.00;99.90;;;;;;4903053;29;20068;-75
2022/06/03 06:24:34;;;;;;;3.58;2.55;;;14.10;99.90;;;;;;4904649;29;20387;-75
2022/06/03 06:27:32;;;;;;;3.85;2.25;;;14.30;99.90;;;;;;4873689;29;20045;-75
2022/06/03 06:30:01;;;;;;;3.13;2.53;;;14.40;99.90;;;;;;4908718;29;20166;-75
2022/06/03 06:32:45;;;;;;;2.97;2.28;;;14.50;99.90;;;;;;4921478;29;20048;-75
2022/06/03 06:35:52;;;;;;;3.67;2.33;;;14.60;99.90;;;;;;4893938;29;20051;-75
2022/06/03 06:38:55;;;;;;;4.25;2.20;;;14.80;99.90;;;;;;4905568;29;20052;-75
2022/06/03 06:41:39;;;;;;;2.55;1.98;;;15.00;99.90;;;;;;4921711;29;20051;-80
2022/06/03 06:44:22;;;;;;;4.60;2.30;;;15.10;99.90;;;;;;4909544;29;20068;-78
2022/06/03 06:46:59;;;;;;;3.70;2.20;;;15.30;99.90;;;;;;4920844;29;20067;-79
2022/06/03 06:49:35;;;;;;;4.30;2.40;;;15.50;99.90;;;;;;4911983;29;20044;-80
2022/06/03 06:52:53;;;;;;;4.13;2.30;;;15.60;99.90;;;;;;4915830;29;20450;-81
2022/06/03 06:55:36;;;;;;;5.25;2.28;;;15.90;99.90;;;;;;4903771;29;20063;-81
2022/06/03 06:58:19;;;;;;;3.10;2.05;;;16.20;99.90;;;;;;4910489;29;20056;-82
2022/06/03 07:00:49;;;;;;;4.00;2.20;;;16.40;99.90;;;;;;4913103;29;20056;-77
2022/06/03 07:03:37;;;;;;;3.20;2.00;;;16.50;99.90;;;;;;4909462;29;20094;-77
2022/06/03 07:06:31;;;;;;;3.17;1.88;;;16.70;99.90;;;;;;4909428;29;20048;-81
2022/06/03 07:09:06;;;;;;;3.00;1.90;;;16.90;99.90;;;;;;4893439;29;20060;-79
2022/06/03 07:11:43;;;;;;;3.03;1.50;;;17.10;99.90;;;;;;4909528;29;20044;-79
2022/06/03 07:14:20;;;;;;;2.28;1.58;;;17.20;99.90;;;;;;4888728;29;20048;-80
2022/06/03 07:19:48;;;;;;;4.50;1.60;;;17.50;99.90;;;;;;4904384;29;20072;-80
2022/06/03 07:22:41;;;;;;;4.63;1.80;;;17.60;99.90;;;;;;4907254;29;20451;-80
2022/06/03 07:25:42;;;;;;;2.80;1.60;;;17.80;99.90;;;;;;4908332;29;20065;-77
2022/06/03 07:28:27;;;;;;;2.90;1.40;;;18.10;99.90;;;;;;4920584;29;20086;-82
2022/06/03 07:31:02;;;;;;;2.00;1.20;;;18.30;99.90;;;;;;4889268;29;20060;-79
2022/06/03 07:33:31;;;;;;;5.70;1.50;;;18.40;99.90;;;;;;4910200;29;20083;-79
2022/06/03 07:36:15;;;;;;;2.80;1.60;;;18.50;99.90;;;;;;4921048;29;20080;-80
2022/06/03 07:38:45;;;;;;;2.13;1.25;;;18.60;99.90;;;;;;4909174;29;20045;-82
2022/06/03 07:41:19;;;;;;;2.40;1.63;;;18.90;99.90;;;;;;4903739;29;20059;-80
2022/06/03 07:43:54;;;;;;;3.40;1.50;;;19.10;99.90;;;;;;4894962;29;20060;-79
2022/06/03 07:46:37;;;;;;;2.40;1.48;;;19.30;99.90;;;;;;4906908;29;20081;-79
2022/06/03 07:49:06;;;;;;;2.88;1.65;;;19.40;99.90;;;;;;4904367;29;20131;-78
2022/06/03 07:51:41;;;;;;;3.75;1.42;;;19.50;99.90;;;;;;4919104;29;20051;-78
2022/06/03 07:54:27;;;;;;;2.35;1.45;;;19.70;99.90;;;;;;4918105;29;20089;-79
2022/06/03 07:57:17;;;;;;;2.55;1.45;;;20.00;99.90;;;;;;4908913;29;20108;-78
2022/06/03 07:59:43;;;;;;;3.55;1.40;;;20.20;99.90;;;;;;4908779;29;20395;-81
2022/06/03 08:02:11;;;;;;;2.40;1.60;;;20.40;99.90;;;;;;4892988;29;20059;-80
2022/06/03 08:04:38;;;;;;;2.95;1.75;;;20.50;99.90;;;;;;4910991;29;20062;-80
2022/06/03 08:13:14;;;;;;;2.42;1.30;;;21.20;99.90;;;;;;4898150;29;20060;-80
2022/06/03 08:16:02;;;;;;;4.95;1.55;;;21.40;99.90;;;;;;4866027;29;20610;-81
2022/06/03 08:18:40;;;;;;;3.55;1.55;;;21.70;99.90;;;;;;4898105;29;20253;-80
2022/06/03 08:21:47;;;;;;;3.92;1.70;;;21.80;99.90;;;;;;4918765;29;20407;-81
2022/06/03 08:24:20;;;;;;;1.73;1.20;;;22.00;99.90;;;;;;4912270;29;20060;-80
2022/06/03 08:26:50;;;;;;;4.93;1.42;;;22.10;99.90;;;;;;4902319;29;20120;-81
2022/06/03 08:29:24;;;;;;;3.95;1.30;;;22.20;99.90;;;;;;4886532;29;20059;-80
2022/06/03 08:31:51;;;;;;;3.15;1.30;;;22.30;99.90;;;;;;4909391;29;20048;-79
2022/06/03 08:34:27;;;;;;;3.60;1.73;;;22.50;99.90;;;;;;4889243;29;20079;-81
2022/06/03 08:36:53;;;;;;;3.60;1.40;;;22.80;99.10;;;;;;4909347;29;20163;-80
2022/06/03 08:39:26;;;;;;;3.08;1.30;;;23.00;99.10;;;;;;4887506;29;20059;-81
2022/06/03 08:42:11;;;;;;;3.35;1.20;;;23.20;98.70;;;;;;4909549;29;20679;-81
2022/06/03 08:44:52;;;;;;;1.88;1.20;;;23.30;98.40;;;;;;4903785;29;20048;-81
2022/06/03 08:47:42;;;;;;;2.65;1.40;;;23.60;98.10;;;;;;4910024;29;20059;-81
2022/06/03 08:50:23;;;;;;;2.40;1.30;;;23.70;97.80;;;;;;4918555;29;20060;-81
2022/06/03 08:52:59;;;;;;;5.20;1.50;;;23.90;97.70;;;;;;4886473;29;20394;-81
2022/06/03 08:55:49;;;;;;;2.65;1.27;;;24.10;96.40;;;;;;4916704;29;20059;-77
2022/06/03 08:58:27;;;;;;;4.25;1.60;;;24.20;95.20;;;;;;4892321;29;20107;-81
2022/06/03 09:01:08;;;;;;;2.65;1.30;;;24.30;96.00;;;;;;4908557;29;20422;-80
2022/06/03 09:04:09;;;;;;;2.00;1.27;;;24.50;95.60;;;;;;4902029;29;20067;-82
2022/06/03 09:06:47;;;;;;;1.77;1.40;;;24.70;94.70;;;;;;4902230;29;20047;-80
2022/06/03 09:09:29;;;;;;;2.40;1.50;;;24.80;94.50;;;;;;4914926;29;20166;-81
2022/06/03 09:12:19;;;;;;;2.00;1.30;;;24.90;94.50;;;;;;4903205;29;20168;-81
2022/06/03 09:14:48;;;;;;;3.15;1.50;;;25.10;94.10;;;;;;4908958;29;20055;-80
2022/06/03 09:17:52;;;;;;;2.30;1.17;;;25.10;93.90;;;;;;4917836;29;20048;-84
2022/06/03 09:20:31;;;;;;;3.13;1.30;;;25.30;93.30;;;;;;4916740;29;20052;-82
2022/06/03 09:23:10;;;;;;;2.20;1.42;;;25.50;93.30;;;;;;4904065;29;20056;-80
2022/06/03 09:25:45;;;;;;;1.77;1.30;;;25.60;93.10;;;;;;4901956;29;20139;-80
2022/06/03 09:28:16;;;;;;;1.92;1.25;;;25.80;92.80;;;;;;4886682;29;20060;-80
2022/06/03 09:30:45;;;;;;;2.28;1.33;;;25.70;91.40;;;;;;4892273;29;20052;-80
2022/06/03 09:33:14;;;;;;;3.25;1.50;;;25.80;91.50;;;;;;4906199;29;20052;-77
2022/06/03 09:35:44;;;;;;;3.78;1.55;;;25.90;91.30;;;;;;4904779;29;20127;-79
2022/06/03 09:38:12;;;;;;;3.22;1.23;;;26.10;91.30;;;;;;4901052;29;20104;-79
2022/06/03 09:40:44;;;;;;;2.55;1.30;;;26.20;91.00;;;;;;4885672;29;20057;-79
2022/06/03 09:43:13;;;;;;;3.05;1.35;;;26.50;91.00;;;;;;4918544;29;20131;-79
2022/06/03 09:45:40;;;;;;;3.17;1.52;;;26.70;90.40;;;;;;4919183;29;20135;-79
2022/06/03 09:48:09;;;;;;;2.55;1.40;;;26.80;87.80;;;;;;4907255;29;20048;-79
2022/06/03 09:50:36;;;;;;;2.47;1.30;;;26.80;87.20;;;;;;4908069;29;20080;-78
2022/06/03 09:53:09;;;;;;;2.10;1.23;;;26.70;86.40;;;;;;4919268;29;20459;-79
2022/06/03 09:55:40;;;;;;;2.60;1.60;;;26.80;84.80;;;;;;4892615;29;20626;-78
2022/06/03 09:58:10;;;;;;;3.00;1.35;;;26.80;84.00;;;;;;4917101;29;20144;-79
2022/06/03 10:00:45;;;;;;;2.10;1.30;;;26.80;84.50;;;;;;4903661;29;20114;-78
2022/06/03 10:03:11;;;;;;;2.00;1.15;;;26.90;84.40;;;;;;4894172;29;20447;-77
2022/06/03 10:05:37;;;;;;;1.85;1.40;;;26.90;83.30;;;;;;4911056;29;20052;-78
2022/06/03 10:08:07;;;;;;;3.45;1.33;;;26.90;82.10;;;;;;4890009;29;20084;-79
2022/06/03 10:13:18;;;;;;;3.00;1.17;;;27.00;82.30;;;;;;4906556;29;20056;-81
2022/06/03 10:16:00;;;;;;;1.73;1.13;;;27.10;80.50;;;;;;4886707;29;20088;-79
2022/06/03 10:18:40;;;;;;;1.98;1.23;;;27.20;78.60;;;;;;4907633;29;20056;-80
2022/06/03 10:21:06;;;;;;;1.65;1.40;;;27.30;77.20;;;;;;4909652;29;20051;-79
2022/06/03 10:23:36;;;;;;;2.00;1.50;;;27.50;78.90;;;;;;4911715;29;20040;-80
2022/06/03 10:26:04;;;;;;;2.67;1.23;;;27.50;77.50;;;;;;4912498;29;20386;-80
2022/06/03 10:28:36;;;;;;;4.10;1.33;;;27.30;77.00;;;;;;4904618;29;20058;-79
2022/06/03 10:31:15;;;;;;;2.03;1.33;;;27.40;77.20;;;;;;4894489;29;20267;-79
2022/06/03 10:33:52;;;;;;;1.63;1.10;;;27.60;76.40;;;;;;4910863;29;20155;-77
2022/06/03 10:36:18;;;;;;;2.95;1.63;;;27.80;76.80;;;;;;4904276;29;21904;-76
2022/06/03 10:38:48;;;;;;;3.03;1.35;;;27.70;74.90;;;;;;4910406;29;20052;-75
2022/06/03 10:41:14;;;;;;;3.28;1.35;;;27.70;73.80;;;;;;4904757;29;20171;-76
2022/06/03 10:43:42;;;;;;;3.03;1.20;;;28.00;73.80;;;;;;4886993;29;20143;-76
2022/06/03 10:46:13;;;;;;;2.15;1.20;;;28.00;73.30;;;;;;4905049;29;20044;-76
2022/06/03 10:48:40;;;;;;;1.85;1.05;;;27.70;73.20;;;;;;4922251;29;20070;-82
2022/06/03 10:51:14;;;;;;;1.65;1.02;;;27.90;72.90;;;;;;4894769;29;20130;-76
2022/06/03 11:02:03;;;;;;;2.10;1.20;;;28.40;70.70;;;;;;4904994;29;20064;-76
2022/06/03 11:04:31;;;;;;;2.67;1.35;;;28.50;69.40;;;;;;4921693;29;20052;-76
2022/06/03 11:07:00;;;;;;;3.42;1.17;;;28.60;68.80;;;;;;4920048;29;20051;-77
2022/06/03 11:09:26;;;;;;;2.85;1.20;;;28.70;67.40;;;;;;4919048;29;20059;-76
2022/06/03 11:11:58;;;;;;;2.60;1.40;;;28.60;68.60;;;;;;4906396;29;20056;-76
2022/06/03 11:14:35;;;;;;;1.83;1.08;;;28.70;68.60;;;;;;4910177;29;20052;-76
2022/06/03 11:17:21;;;;;;;2.15;1.20;;;28.70;68.20;;;;;;4920179;29;20052;-79
2022/06/03 11:19:49;;;;;;;2.35;1.20;;;28.80;67.00;;;;;;4910452;29;20067;-76
2022/06/03 11:22:16;;;;;;;2.83;1.02;;;28.80;67.20;;;;;;4909683;29;20090;-76
2022/06/03 11:24:49;;;;;;;1.52;1.10;;;28.90;67.00;;;;;;4910037;29;20127;-76
2022/06/03 11:27:17;;;;;;;2.08;1.20;;;28.50;66.50;;;;;;4906003;29;20060;-75
2022/06/03 11:29:45;;;;;;;2.55;1.20;;;28.60;66.90;;;;;;4878807;29;20138;-76
2022/06/03 11:32:13;;;;;;;2.75;1.30;;;28.70;66.40;;;;;;4879152;29;20049;-76
2022/06/03 11:34:48;;;;;;;2.15;1.10;;;29.00;66.40;;;;;;4891973;29;20044;-76
2022/06/03 11:37:20;;;;;;;2.83;1.52;;;29.10;65.30;;;;;;4904265;29;20197;-76
2022/06/03 11:39:52;;;;;;;2.85;1.30;;;29.00;65.20;;;;;;4908939;29;20064;-80
2022/06/03 11:42:37;;;;;;;3.60;1.42;;;28.70;66.80;;;;;;4908131;29;20127;-78
2022/06/03 11:45:42;;;;;;;1.90;1.30;;;28.40;67.40;;;;;;4906178;29;20087;-77
2022/06/03 11:48:31;;;;;;;3.85;1.38;;;27.90;68.30;;;;;;4917590;29;20052;-80
2022/06/03 11:50:59;;;;;;;5.05;1.80;;;27.90;69.60;;;;;;4907552;29;20106;-80
2022/06/03 11:53:30;;;;;;;15.48;2.25;;;27.60;70.10;;;;;;4886049;29;20055;-76
2022/06/03 11:56:01;;;;;;;10.98;2.17;;;27.20;70.20;;;;;;4913778;29;20111;-75
2022/06/03 11:58:27;;;;;;;4.05;1.60;;;27.10;71.60;;;;;;4900402;29;20067;-76
2022/06/03 12:01:03;;;;;;;5.07;1.85;;;27.20;72.20;;;;;;4903000;29;20063;-75
2022/06/03 12:03:42;;;;;;;2.22;1.48;;;27.20;70.80;;;;;;4892103;29;20048;-75
2022/06/03 12:06:22;;;;;;;3.92;1.60;;;27.40;71.40;;;;;;4891660;29;20076;-75
2022/06/03 12:09:01;;;;;;;2.42;1.20;;;27.20;69.70;;;;;;4907366;29;20107;-75
2022/06/03 12:14:37;;;;;;;2.95;1.30;;;27.60;70.60;;;;;;4900859;29;20153;-75
2022/06/03 12:17:12;;;;;;;2.80;1.27;;;27.80;70.20;;;;;;4902185;29;20095;-75
2022/06/03 12:19:41;;;;;;;4.40;1.60;;;27.70;71.20;;;;;;4903122;29;20041;-75
2022/06/03 12:22:29;;;;;;;2.33;1.40;;;27.60;71.00;;;;;;4905835;29;20049;-75
2022/06/03 12:25:03;;;;;;;3.10;1.40;;;27.30;70.60;;;;;;4917866;29;20056;-75
2022/06/03 12:27:37;;;;;;;4.60;1.70;;;27.40;71.20;;;;;;4905605;29;20056;-76
2022/06/03 12:30:20;;;;;;;2.55;1.30;;;27.50;72.10;;;;;;4905740;29;22582;-75
2022/06/03 12:33:08;;;;;;;3.28;1.60;;;27.60;71.20;;;;;;4889072;29;20138;-75
2022/06/03 12:35:47;;;;;;;4.43;1.33;;;27.70;70.80;;;;;;4908284;29;20051;-75
2022/06/03 12:38:23;;;;;;;2.65;1.35;;;27.90;71.40;;;;;;4906483;29;20128;-75
2022/06/03 12:41:00;;;;;;;5.03;1.45;;;28.00;71.30;;;;;;4915874;29;20637;-75
2022/06/03 12:43:30;;;;;;;4.55;1.20;;;28.10;72.00;;;;;;4905776;29;20516;-76
2022/06/03 12:46:09;;;;;;;3.92;1.10;;;28.00;71.90;;;;;;4902865;29;20055;-76
2022/06/03 12:48:37;;;;;;;3.22;1.33;;;28.00;72.10;;;;;;4900468;29;20450;-76
2022/06/03 12:51:17;;;;;;;3.92;1.20;;;28.10;72.20;;;;;;4902540;29;20060;-76
2022/06/03 12:53:45;;;;;;;4.40;1.42;;;28.00;70.40;;;;;;4902548;29;20052;-75
2022/06/03 12:56:33;;;;;;;2.95;0.90;;;27.90;70.40;;;;;;4905097;29;20044;-75
2022/06/03 12:59:22;;;;;;;5.53;1.42;;;28.00;71.20;;;;;;4904916;29;20311;-75
2022/06/03 13:01:56;;;;;;;4.35;1.17;;;28.10;70.10;;;;;;4905814;29;20191;-76
2022/06/03 13:04:34;;;;;;;6.03;1.00;;;28.10;71.60;;;;;;4907080;29;20057;-75
2022/06/03 13:07:36;;;;;;;3.17;1.17;;;28.20;71.00;;;;;;4906178;29;20096;-77
2022/06/03 13:10:02;;;;;;;5.95;1.13;;;28.20;70.20;;;;;;4894261;29;20052;-78
2022/06/03 13:12:34;;;;;;;5.10;1.02;;;28.60;70.20;;;;;;4907289;29;20047;-78
2022/06/03 13:15:21;;;;;;;2.10;1.00;;;28.80;69.20;;;;;;4919863;29;20047;-78
2022/06/03 13:18:18;;;;;;;4.35;1.00;;;28.80;67.90;;;;;;4906763;29;20127;-79
2022/06/03 13:20:45;;;;;;;2.63;0.90;;;28.80;68.00;;;;;;4902071;29;20184;-77
2022/06/03 13:23:23;;;;;;;2.28;0.90;;;28.70;68.00;;;;;;4892331;29;20126;-77
2022/06/03 13:25:51;;;;;;;2.55;1.00;;;28.50;66.40;;;;;;4906474;29;20134;-80
2022/06/03 13:28:35;;;;;;;3.90;1.10;;;28.40;66.90;;;;;;4906014;29;20112;-78
2022/06/03 13:31:08;;;;;;;4.25;1.00;;;28.40;66.80;;;;;;4918664;29;20036;-75
2022/06/03 13:33:59;;;;;;;4.07;1.10;;;28.40;65.70;;;;;;4901091;29;20072;-77
2022/06/03 13:36:40;;;;;;;4.55;1.10;;;28.60;67.20;;;;;;4904884;29;20470;-76
2022/06/03 13:39:10;;;;;;;3.05;0.90;;;28.70;65.60;;;;;;4911023;29;20052;-76
2022/06/03 13:44:38;;;;;;;3.53;0.70;;;28.80;65.10;;;;;;4908005;29;20418;-75
2022/06/03 13:47:19;;;;;;;1.15;0.70;;;28.90;62.30;;;;;;4921501;29;20055;-76
2022/06/03 13:49:57;;;;;;;2.00;0.80;;;28.90;63.40;;;;;;4894053;29;20087;-76
2022/06/03 13:52:32;;;;;;;4.70;1.15;;;28.80;63.20;;;;;;4912053;29;20048;-76
2022/06/03 13:55:20;;;;;;;1.48;0.63;;;28.90;62.50;;;;;;4921426;29;20066;-75
2022/06/03 13:58:00;;;;;;;3.60;0.60;;;28.90;63.80;;;;;;4906741;29;20071;-76
2022/06/03 14:00:38;;;;;;;2.70;0.80;;;28.90;62.60;;;;;;4922698;29;20052;-76
2022/06/03 14:03:04;;;;;;;1.80;0.80;;;28.80;61.90;;;;;;4904656;29;20174;-82
2022/06/03 14:05:46;;;;;;;3.65;0.95;;;28.80;62.00;;;;;;4918657;29;20514;-75
2022/06/03 14:08:18;;;;;;;1.90;0.60;;;28.70;59.70;;;;;;4905306;29;20114;-75
2022/06/03 14:10:51;;;;;;;2.58;0.90;;;28.70;61.90;;;;;;4909554;29;20119;-75
2022/06/03 14:13:42;;;;;;;1.40;0.73;;;28.70;61.50;;;;;;4905588;29;20060;-76
2022/06/03 14:16:43;;;;;;;1.60;0.80;;;28.70;61.10;;;;;;4896066;29;20051;-75
2022/06/03 14:19:11;;;;;;;4.07;0.90;;;28.70;60.80;;;;;;4907148;29;20134;-75
2022/06/03 14:21:37;;;;;;;3.00;0.70;;;28.60;60.80;;;;;;4904616;29;20059;-77
2022/06/03 14:24:30;;;;;;;3.88;0.70;;;28.50;60.10;;;;;;4906834;29;20397;-75
2022/06/03 14:27:04;;;;;;;1.42;0.80;;;28.50;58.90;;;;;;4894340;29;20141;-75